sensor_id;sensor_type;location;lat;lon;timestamp;P1;durP1;ratioP1;P2;durP2;ratioP2
74523;SDS011;63074;44.696;10.358;2023-01-01T00:00:02;70.95;;;38.20;;
74523;SDS011;63074;44.696;10.358;2023-01-01T00:02:32;70.32;;;40.97;;
74523;SDS011;63074;44.696;10.358;2023-01-01T00:04:59;66.97;;;38.70;;
74523;SDS011;63074;44.696;10.358;2023-01-01T00:07:26;64.35;;;37.30;;
74523;SDS011;63074;44.696;10.358;2023-01-01T00:09:54;66.05;;;34.55;;
74523;SDS011;63074;44.696;10.358;2023-01-01T00:12:39;60.85;;;36.40;;
74523;SDS011;63074;44.696;10.358;2023-01-01T00:15:05;62.65;;;34.95;;
74523;SDS011;63074;44.696;10.358;2023-01-01T00:17:32;60.28;;;36.13;;
74523;SDS011;63074;44.696;10.358;2023-01-01T00:19:58;58.35;;;32.63;;
74523;SDS011;63074;44.696;10.358;2023-01-01T00:22:25;57.10;;;33.80;;
74523;SDS011;63074;44.696;10.358;2023-01-01T00:24:52;63.13;;;36.60;;
74523;SDS011;63074;44.696;10.358;2023-01-01T00:27:19;62.00;;;35.22;;
74523;SDS011;63074;44.696;10.358;2023-01-01T00:29:45;62.90;;;34.35;;
74523;SDS011;63074;44.696;10.358;2023-01-01T00:32:11;55.90;;;31.83;;
74523;SDS011;63074;44.696;10.358;2023-01-01T00:34:37;60.92;;;33.90;;
74523;SDS011;63074;44.696;10.358;2023-01-01T00:37:04;60.55;;;32.85;;
74523;SDS011;63074;44.696;10.358;2023-01-01T00:39:33;64.05;;;32.75;;
74523;SDS011;63074;44.696;10.358;2023-01-01T00:42:02;63.13;;;34.13;;
74523;SDS011;63074;44.696;10.358;2023-01-01T00:44:29;63.10;;;34.45;;
74523;SDS011;63074;44.696;10.358;2023-01-01T00:46:55;62.65;;;34.53;;
74523;SDS011;63074;44.696;10.358;2023-01-01T00:49:26;60.33;;;35.05;;
74523;SDS011;63074;44.696;10.358;2023-01-01T00:51:53;67.70;;;35.13;;
74523;SDS011;63074;44.696;10.358;2023-01-01T00:54:20;62.78;;;34.42;;
74523;SDS011;63074;44.696;10.358;2023-01-01T00:56:46;58.28;;;32.85;;
74523;SDS011;63074;44.696;10.358;2023-01-01T00:59:12;65.15;;;36.15;;
74523;SDS011;63074;44.696;10.358;2023-01-01T01:01:39;60.20;;;35.08;;
74523;SDS011;63074;44.696;10.358;2023-01-01T01:04:06;67.43;;;37.20;;
74523;SDS011;63074;44.696;10.358;2023-01-01T01:06:34;63.97;;;34.95;;
74523;SDS011;63074;44.696;10.358;2023-01-01T01:09:04;64.50;;;35.83;;
74523;SDS011;63074;44.696;10.358;2023-01-01T01:11:34;64.97;;;35.35;;
74523;SDS011;63074;44.696;10.358;2023-01-01T01:14:01;61.58;;;35.50;;
74523;SDS011;63074;44.696;10.358;2023-01-01T01:16:29;64.60;;;36.38;;
74523;SDS011;63074;44.696;10.358;2023-01-01T01:18:57;65.47;;;37.97;;
74523;SDS011;63074;44.696;10.358;2023-01-01T01:21:28;65.35;;;36.78;;
74523;SDS011;63074;44.696;10.358;2023-01-01T01:23:59;70.85;;;38.55;;
74523;SDS011;63074;44.696;10.358;2023-01-01T01:26:28;67.25;;;39.17;;
74523;SDS011;63074;44.696;10.358;2023-01-01T01:31:26;64.72;;;35.67;;
74523;SDS011;63074;44.696;10.358;2023-01-01T01:33:56;69.07;;;36.70;;
74523;SDS011;63074;44.696;10.358;2023-01-01T01:36:25;64.65;;;35.83;;
74523;SDS011;63074;44.696;10.358;2023-01-01T01:38:52;62.33;;;33.75;;
74523;SDS011;63074;44.696;10.358;2023-01-01T01:41:21;62.60;;;35.20;;
74523;SDS011;63074;44.696;10.358;2023-01-01T01:43:59;70.72;;;34.70;;
74523;SDS011;63074;44.696;10.358;2023-01-01T01:46:33;60.83;;;32.30;;
74523;SDS011;63074;44.696;10.358;2023-01-01T01:49:10;60.50;;;33.90;;
74523;SDS011;63074;44.696;10.358;2023-01-01T01:51:55;56.60;;;32.88;;
74523;SDS011;63074;44.696;10.358;2023-01-01T01:54:23;61.83;;;31.02;;
74523;SDS011;63074;44.696;10.358;2023-01-01T01:57:00;59.63;;;30.73;;
74523;SDS011;63074;44.696;10.358;2023-01-01T01:59:31;58.58;;;30.95;;
74523;SDS011;63074;44.696;10.358;2023-01-01T02:02:02;61.35;;;31.77;;
74523;SDS011;63074;44.696;10.358;2023-01-01T02:04:36;57.88;;;31.83;;
74523;SDS011;63074;44.696;10.358;2023-01-01T02:07:04;61.80;;;32.00;;
74523;SDS011;63074;44.696;10.358;2023-01-01T02:09:32;60.72;;;31.15;;
74523;SDS011;63074;44.696;10.358;2023-01-01T02:11:59;56.42;;;29.95;;
74523;SDS011;63074;44.696;10.358;2023-01-01T02:14:25;64.15;;;31.77;;
74523;SDS011;63074;44.696;10.358;2023-01-01T02:16:56;57.38;;;29.60;;
74523;SDS011;63074;44.696;10.358;2023-01-01T02:31:01;56.10;;;28.92;;
74523;SDS011;63074;44.696;10.358;2023-01-01T02:33:40;55.85;;;30.90;;
74523;SDS011;63074;44.696;10.358;2023-01-01T02:36:09;54.70;;;29.25;;
74523;SDS011;63074;44.696;10.358;2023-01-01T02:38:39;52.75;;;29.10;;
74523;SDS011;63074;44.696;10.358;2023-01-01T02:43:40;52.72;;;27.35;;
74523;SDS011;63074;44.696;10.358;2023-01-01T02:46:08;53.63;;;28.80;;
74523;SDS011;63074;44.696;10.358;2023-01-01T02:50:14;48.78;;;26.75;;
74523;SDS011;63074;44.696;10.358;2023-01-01T02:54:43;48.50;;;25.38;;
74523;SDS011;63074;44.696;10.358;2023-01-01T02:57:31;46.28;;;23.23;;
74523;SDS011;63074;44.696;10.358;2023-01-01T03:00:08;48.80;;;24.20;;
74523;SDS011;63074;44.696;10.358;2023-01-01T03:14:11;48.47;;;22.95;;
74523;SDS011;63074;44.696;10.358;2023-01-01T03:16:53;51.33;;;24.88;;
74523;SDS011;63074;44.696;10.358;2023-01-01T03:19:32;49.58;;;25.40;;
74523;SDS011;63074;44.696;10.358;2023-01-01T03:22:11;47.33;;;23.05;;
74523;SDS011;63074;44.696;10.358;2023-01-01T03:24:41;46.45;;;24.40;;
74523;SDS011;63074;44.696;10.358;2023-01-01T03:27:23;48.08;;;23.75;;
74523;SDS011;63074;44.696;10.358;2023-01-01T03:30:17;43.25;;;23.17;;
74523;SDS011;63074;44.696;10.358;2023-01-01T03:32:48;43.17;;;21.73;;
74523;SDS011;63074;44.696;10.358;2023-01-01T03:35:36;48.28;;;21.90;;
74523;SDS011;63074;44.696;10.358;2023-01-01T03:38:13;46.13;;;21.35;;
74523;SDS011;63074;44.696;10.358;2023-01-01T03:41:16;41.55;;;21.20;;
74523;SDS011;63074;44.696;10.358;2023-01-01T03:44:07;40.92;;;21.70;;
74523;SDS011;63074;44.696;10.358;2023-01-01T03:46:54;42.30;;;21.05;;
74523;SDS011;63074;44.696;10.358;2023-01-01T03:49:23;42.20;;;22.33;;
74523;SDS011;63074;44.696;10.358;2023-01-01T03:55:07;42.80;;;22.65;;
74523;SDS011;63074;44.696;10.358;2023-01-01T04:00:43;42.28;;;20.95;;
74523;SDS011;63074;44.696;10.358;2023-01-01T04:03:33;42.97;;;22.67;;
74523;SDS011;63074;44.696;10.358;2023-01-01T04:06:08;42.67;;;22.55;;
74523;SDS011;63074;44.696;10.358;2023-01-01T04:08:37;42.70;;;22.95;;
74523;SDS011;63074;44.696;10.358;2023-01-01T04:11:06;41.50;;;21.52;;
74523;SDS011;63074;44.696;10.358;2023-01-01T04:14:28;42.72;;;22.08;;
74523;SDS011;63074;44.696;10.358;2023-01-01T04:17:05;42.38;;;21.83;;
74523;SDS011;63074;44.696;10.358;2023-01-01T04:19:33;40.05;;;22.15;;
74523;SDS011;63074;44.696;10.358;2023-01-01T04:22:00;42.63;;;21.83;;
74523;SDS011;63074;44.696;10.358;2023-01-01T04:24:51;43.10;;;23.45;;
74523;SDS011;63074;44.696;10.358;2023-01-01T04:27:18;42.90;;;22.25;;
74523;SDS011;63074;44.696;10.358;2023-01-01T04:29:44;40.15;;;21.55;;
74523;SDS011;63074;44.696;10.358;2023-01-01T04:32:11;44.10;;;23.08;;
74523;SDS011;63074;44.696;10.358;2023-01-01T04:34:39;43.38;;;21.58;;
74523;SDS011;63074;44.696;10.358;2023-01-01T04:37:16;37.92;;;20.33;;
74523;SDS011;63074;44.696;10.358;2023-01-01T04:39:42;45.35;;;23.02;;
74523;SDS011;63074;44.696;10.358;2023-01-01T04:42:08;46.22;;;23.25;;
74523;SDS011;63074;44.696;10.358;2023-01-01T04:44:35;44.08;;;24.13;;
74523;SDS011;63074;44.696;10.358;2023-01-01T04:47:03;43.83;;;23.42;;
74523;SDS011;63074;44.696;10.358;2023-01-01T04:49:51;44.70;;;23.92;;
74523;SDS011;63074;44.696;10.358;2023-01-01T04:52:19;43.63;;;22.88;;
74523;SDS011;63074;44.696;10.358;2023-01-01T04:54:47;49.50;;;23.85;;
74523;SDS011;63074;44.696;10.358;2023-01-01T04:57:16;45.95;;;23.73;;
74523;SDS011;63074;44.696;10.358;2023-01-01T04:59:42;49.00;;;21.98;;
74523;SDS011;63074;44.696;10.358;2023-01-01T05:02:14;44.17;;;23.85;;
74523;SDS011;63074;44.696;10.358;2023-01-01T05:04:41;47.67;;;22.92;;
74523;SDS011;63074;44.696;10.358;2023-01-01T05:07:09;44.95;;;22.75;;
74523;SDS011;63074;44.696;10.358;2023-01-01T05:09:35;48.13;;;25.10;;
74523;SDS011;63074;44.696;10.358;2023-01-01T05:12:02;51.50;;;24.10;;
74523;SDS011;63074;44.696;10.358;2023-01-01T05:14:28;48.13;;;25.50;;
74523;SDS011;63074;44.696;10.358;2023-01-01T05:16:56;46.78;;;24.45;;
74523;SDS011;63074;44.696;10.358;2023-01-01T05:19:23;52.50;;;23.92;;
74523;SDS011;63074;44.696;10.358;2023-01-01T05:21:51;48.75;;;25.42;;
74523;SDS011;63074;44.696;10.358;2023-01-01T05:24:19;50.47;;;24.27;;
74523;SDS011;63074;44.696;10.358;2023-01-01T05:26:45;48.47;;;23.52;;
74523;SDS011;63074;44.696;10.358;2023-01-01T05:29:12;44.80;;;23.98;;
74523;SDS011;63074;44.696;10.358;2023-01-01T05:31:39;49.10;;;23.95;;
74523;SDS011;63074;44.696;10.358;2023-01-01T05:34:07;49.33;;;23.38;;
74523;SDS011;63074;44.696;10.358;2023-01-01T05:36:37;50.15;;;23.98;;
74523;SDS011;63074;44.696;10.358;2023-01-01T05:39:08;49.72;;;25.20;;
74523;SDS011;63074;44.696;10.358;2023-01-01T05:41:41;50.60;;;23.33;;
74523;SDS011;63074;44.696;10.358;2023-01-01T05:44:08;45.17;;;23.33;;
74523;SDS011;63074;44.696;10.358;2023-01-01T05:46:36;42.67;;;22.42;;
74523;SDS011;63074;44.696;10.358;2023-01-01T05:49:03;47.95;;;22.67;;
74523;SDS011;63074;44.696;10.358;2023-01-01T05:51:30;45.53;;;23.58;;
74523;SDS011;63074;44.696;10.358;2023-01-01T05:53:57;43.30;;;23.55;;
74523;SDS011;63074;44.696;10.358;2023-01-01T05:56:23;39.95;;;20.50;;
74523;SDS011;63074;44.696;10.358;2023-01-01T05:58:52;42.92;;;22.05;;
74523;SDS011;63074;44.696;10.358;2023-01-01T06:01:20;43.63;;;21.50;;
74523;SDS011;63074;44.696;10.358;2023-01-01T06:03:48;48.30;;;23.30;;
74523;SDS011;63074;44.696;10.358;2023-01-01T06:06:20;47.35;;;22.08;;
74523;SDS011;63074;44.696;10.358;2023-01-01T06:08:52;42.47;;;23.27;;
74523;SDS011;63074;44.696;10.358;2023-01-01T06:11:23;47.15;;;22.65;;
74523;SDS011;63074;44.696;10.358;2023-01-01T06:13:54;50.97;;;26.35;;
74523;SDS011;63074;44.696;10.358;2023-01-01T06:16:30;50.63;;;24.30;;
74523;SDS011;63074;44.696;10.358;2023-01-01T06:18:58;55.03;;;27.15;;
74523;SDS011;63074;44.696;10.358;2023-01-01T06:21:25;52.20;;;26.98;;
74523;SDS011;63074;44.696;10.358;2023-01-01T06:23:56;54.33;;;25.92;;
74523;SDS011;63074;44.696;10.358;2023-01-01T06:26:25;52.63;;;25.98;;
74523;SDS011;63074;44.696;10.358;2023-01-01T06:28:55;54.50;;;25.58;;
74523;SDS011;63074;44.696;10.358;2023-01-01T06:31:26;49.17;;;25.67;;
74523;SDS011;63074;44.696;10.358;2023-01-01T06:33:53;50.83;;;25.00;;
74523;SDS011;63074;44.696;10.358;2023-01-01T06:36:28;50.72;;;25.00;;
74523;SDS011;63074;44.696;10.358;2023-01-01T06:38:55;56.90;;;26.23;;
74523;SDS011;63074;44.696;10.358;2023-01-01T06:41:25;55.40;;;25.73;;
74523;SDS011;63074;44.696;10.358;2023-01-01T06:43:55;50.85;;;27.23;;
74523;SDS011;63074;44.696;10.358;2023-01-01T06:46:27;63.38;;;27.83;;
74523;SDS011;63074;44.696;10.358;2023-01-01T06:49:00;57.78;;;29.63;;
74523;SDS011;63074;44.696;10.358;2023-01-01T06:51:30;60.55;;;30.20;;
74523;SDS011;63074;44.696;10.358;2023-01-01T06:54:01;63.40;;;32.22;;
74523;SDS011;63074;44.696;10.358;2023-01-01T06:56:34;63.90;;;30.40;;
74523;SDS011;63074;44.696;10.358;2023-01-01T06:59:01;64.15;;;33.05;;
74523;SDS011;63074;44.696;10.358;2023-01-01T07:01:31;62.90;;;31.95;;
74523;SDS011;63074;44.696;10.358;2023-01-01T07:04:06;66.55;;;32.33;;
74523;SDS011;63074;44.696;10.358;2023-01-01T07:06:43;63.00;;;33.38;;
74523;SDS011;63074;44.696;10.358;2023-01-01T07:09:12;60.78;;;31.60;;
74523;SDS011;63074;44.696;10.358;2023-01-01T07:11:38;66.35;;;31.83;;
74523;SDS011;63074;44.696;10.358;2023-01-01T07:14:05;70.00;;;34.00;;
74523;SDS011;63074;44.696;10.358;2023-01-01T07:16:32;66.63;;;33.63;;
74523;SDS011;63074;44.696;10.358;2023-01-01T07:18:59;65.55;;;32.30;;
74523;SDS011;63074;44.696;10.358;2023-01-01T07:21:29;59.88;;;30.20;;
74523;SDS011;63074;44.696;10.358;2023-01-01T07:23:57;60.72;;;32.53;;
74523;SDS011;63074;44.696;10.358;2023-01-01T07:26:26;61.13;;;31.38;;
74523;SDS011;63074;44.696;10.358;2023-01-01T07:28:55;62.45;;;31.23;;
74523;SDS011;63074;44.696;10.358;2023-01-01T07:31:24;62.50;;;32.30;;
74523;SDS011;63074;44.696;10.358;2023-01-01T07:33:51;59.83;;;29.42;;
74523;SDS011;63074;44.696;10.358;2023-01-01T07:36:19;64.65;;;32.45;;
74523;SDS011;63074;44.696;10.358;2023-01-01T07:38:45;62.40;;;31.92;;
74523;SDS011;63074;44.696;10.358;2023-01-01T07:41:14;61.60;;;31.42;;
74523;SDS011;63074;44.696;10.358;2023-01-01T07:43:40;64.40;;;32.40;;
74523;SDS011;63074;44.696;10.358;2023-01-01T07:46:09;55.58;;;28.50;;
74523;SDS011;63074;44.696;10.358;2023-01-01T07:48:40;60.55;;;30.33;;
74523;SDS011;63074;44.696;10.358;2023-01-01T07:51:07;55.88;;;31.30;;
74523;SDS011;63074;44.696;10.358;2023-01-01T07:53:33;57.65;;;31.27;;
74523;SDS011;63074;44.696;10.358;2023-01-01T07:56:01;59.10;;;30.42;;
74523;SDS011;63074;44.696;10.358;2023-01-01T07:58:29;56.95;;;30.13;;
74523;SDS011;63074;44.696;10.358;2023-01-01T08:00:55;64.80;;;34.42;;
74523;SDS011;63074;44.696;10.358;2023-01-01T08:03:21;68.15;;;32.75;;
74523;SDS011;63074;44.696;10.358;2023-01-01T08:05:47;59.38;;;32.10;;
74523;SDS011;63074;44.696;10.358;2023-01-01T08:08:15;63.88;;;33.22;;
74523;SDS011;63074;44.696;10.358;2023-01-01T08:10:42;61.95;;;29.45;;
74523;SDS011;63074;44.696;10.358;2023-01-01T08:13:08;54.83;;;30.40;;
74523;SDS011;63074;44.696;10.358;2023-01-01T08:15:35;58.38;;;31.52;;
74523;SDS011;63074;44.696;10.358;2023-01-01T08:18:04;54.80;;;30.45;;
74523;SDS011;63074;44.696;10.358;2023-01-01T08:20:34;62.50;;;33.55;;
74523;SDS011;63074;44.696;10.358;2023-01-01T08:23:00;64.57;;;33.72;;
74523;SDS011;63074;44.696;10.358;2023-01-01T08:25:27;63.47;;;31.65;;
74523;SDS011;63074;44.696;10.358;2023-01-01T08:27:53;65.88;;;33.83;;
74523;SDS011;63074;44.696;10.358;2023-01-01T08:30:22;68.18;;;33.05;;
74523;SDS011;63074;44.696;10.358;2023-01-01T08:32:50;65.22;;;34.25;;
74523;SDS011;63074;44.696;10.358;2023-01-01T08:35:17;61.92;;;32.17;;
74523;SDS011;63074;44.696;10.358;2023-01-01T08:37:44;60.95;;;32.00;;
74523;SDS011;63074;44.696;10.358;2023-01-01T08:40:11;64.38;;;32.60;;
74523;SDS011;63074;44.696;10.358;2023-01-01T08:42:38;65.57;;;34.65;;
74523;SDS011;63074;44.696;10.358;2023-01-01T08:45:05;64.07;;;33.15;;
74523;SDS011;63074;44.696;10.358;2023-01-01T08:47:38;62.30;;;33.28;;
74523;SDS011;63074;44.696;10.358;2023-01-01T08:50:07;69.05;;;34.05;;
74523;SDS011;63074;44.696;10.358;2023-01-01T08:52:34;65.05;;;33.95;;
74523;SDS011;63074;44.696;10.358;2023-01-01T08:55:01;58.45;;;32.65;;
74523;SDS011;63074;44.696;10.358;2023-01-01T08:57:29;61.15;;;31.65;;
74523;SDS011;63074;44.696;10.358;2023-01-01T08:59:55;56.55;;;31.23;;
74523;SDS011;63074;44.696;10.358;2023-01-01T09:02:22;62.80;;;31.65;;
74523;SDS011;63074;44.696;10.358;2023-01-01T09:04:48;58.67;;;32.38;;
74523;SDS011;63074;44.696;10.358;2023-01-01T09:07:15;62.15;;;33.13;;
74523;SDS011;63074;44.696;10.358;2023-01-01T09:09:42;56.95;;;31.45;;
74523;SDS011;63074;44.696;10.358;2023-01-01T09:12:17;54.15;;;31.70;;
74523;SDS011;63074;44.696;10.358;2023-01-01T09:14:47;60.72;;;29.88;;
74523;SDS011;63074;44.696;10.358;2023-01-01T09:17:14;53.78;;;30.48;;
74523;SDS011;63074;44.696;10.358;2023-01-01T09:19:40;53.25;;;28.98;;
74523;SDS011;63074;44.696;10.358;2023-01-01T09:22:10;56.15;;;29.88;;
74523;SDS011;63074;44.696;10.358;2023-01-01T09:24:37;56.45;;;28.95;;
74523;SDS011;63074;44.696;10.358;2023-01-01T09:27:03;55.95;;;30.52;;
74523;SDS011;63074;44.696;10.358;2023-01-01T09:29:33;56.17;;;28.90;;
74523;SDS011;63074;44.696;10.358;2023-01-01T09:32:00;54.90;;;27.17;;
74523;SDS011;63074;44.696;10.358;2023-01-01T09:34:32;55.85;;;29.58;;
74523;SDS011;63074;44.696;10.358;2023-01-01T09:36:59;57.40;;;29.60;;
74523;SDS011;63074;44.696;10.358;2023-01-01T09:39:26;52.63;;;27.98;;
74523;SDS011;63074;44.696;10.358;2023-01-01T09:45:08;55.03;;;27.52;;
74523;SDS011;63074;44.696;10.358;2023-01-01T09:48:06;58.58;;;28.23;;
74523;SDS011;63074;44.696;10.358;2023-01-01T09:50:40;60.58;;;29.92;;
74523;SDS011;63074;44.696;10.358;2023-01-01T09:53:31;57.17;;;30.17;;
74523;SDS011;63074;44.696;10.358;2023-01-01T09:56:21;55.17;;;28.42;;
74523;SDS011;63074;44.696;10.358;2023-01-01T09:58:56;55.90;;;30.15;;
74523;SDS011;63074;44.696;10.358;2023-01-01T10:05:07;54.33;;;27.63;;
74523;SDS011;63074;44.696;10.358;2023-01-01T10:11:34;49.17;;;25.08;;
74523;SDS011;63074;44.696;10.358;2023-01-01T10:14:44;50.60;;;23.67;;
74523;SDS011;63074;44.696;10.358;2023-01-01T10:17:37;47.30;;;23.35;;
74523;SDS011;63074;44.696;10.358;2023-01-01T10:23:02;48.35;;;23.33;;
74523;SDS011;63074;44.696;10.358;2023-01-01T10:26:12;51.03;;;23.42;;
74523;SDS011;63074;44.696;10.358;2023-01-01T10:32:17;49.42;;;24.25;;
74523;SDS011;63074;44.696;10.358;2023-01-01T10:35:10;48.30;;;24.55;;
74523;SDS011;63074;44.696;10.358;2023-01-01T10:37:48;44.90;;;24.65;;
74523;SDS011;63074;44.696;10.358;2023-01-01T10:40:40;49.50;;;26.35;;
74523;SDS011;63074;44.696;10.358;2023-01-01T10:43:18;47.05;;;25.45;;
74523;SDS011;63074;44.696;10.358;2023-01-01T10:45:49;45.67;;;23.85;;
74523;SDS011;63074;44.696;10.358;2023-01-01T10:48:28;45.72;;;23.00;;
74523;SDS011;63074;44.696;10.358;2023-01-01T10:51:21;42.97;;;23.00;;
74523;SDS011;63074;44.696;10.358;2023-01-01T10:57:13;48.40;;;25.15;;
74523;SDS011;63074;44.696;10.358;2023-01-01T11:00:25;42.80;;;24.67;;
74523;SDS011;63074;44.696;10.358;2023-01-01T11:03:27;44.60;;;23.13;;
74523;SDS011;63074;44.696;10.358;2023-01-01T11:06:05;46.05;;;24.75;;
74523;SDS011;63074;44.696;10.358;2023-01-01T11:08:56;41.90;;;22.02;;
74523;SDS011;63074;44.696;10.358;2023-01-01T11:11:31;37.20;;;18.85;;
74523;SDS011;63074;44.696;10.358;2023-01-01T11:14:20;38.00;;;19.92;;
74523;SDS011;63074;44.696;10.358;2023-01-01T11:17:08;38.03;;;20.45;;
74523;SDS011;63074;44.696;10.358;2023-01-01T11:19:38;39.45;;;20.38;;
74523;SDS011;63074;44.696;10.358;2023-01-01T11:22:16;39.55;;;20.17;;
74523;SDS011;63074;44.696;10.358;2023-01-01T11:27:31;35.13;;;18.73;;
74523;SDS011;63074;44.696;10.358;2023-01-01T11:33:00;30.33;;;16.73;;
74523;SDS011;63074;44.696;10.358;2023-01-01T11:35:50;26.67;;;15.15;;
74523;SDS011;63074;44.696;10.358;2023-01-01T11:38:22;29.60;;;15.70;;
74523;SDS011;63074;44.696;10.358;2023-01-01T11:41:00;27.58;;;16.05;;
74523;SDS011;63074;44.696;10.358;2023-01-01T11:43:39;28.17;;;16.17;;
74523;SDS011;63074;44.696;10.358;2023-01-01T11:46:21;27.90;;;14.55;;
74523;SDS011;63074;44.696;10.358;2023-01-01T12:01:09;31.88;;;15.82;;
74523;SDS011;63074;44.696;10.358;2023-01-01T12:20:34;29.08;;;14.45;;
74523;SDS011;63074;44.696;10.358;2023-01-01T12:23:50;24.33;;;14.00;;
74523;SDS011;63074;44.696;10.358;2023-01-01T12:29:06;27.67;;;14.63;;
74523;SDS011;63074;44.696;10.358;2023-01-01T12:34:25;18.40;;;10.10;;
74523;SDS011;63074;44.696;10.358;2023-01-01T12:43:41;23.65;;;11.75;;
74523;SDS011;63074;44.696;10.358;2023-01-01T12:46:33;16.17;;;10.88;;
74523;SDS011;63074;44.696;10.358;2023-01-01T12:58:54;19.13;;;11.60;;
74523;SDS011;63074;44.696;10.358;2023-01-01T13:01:34;20.60;;;11.68;;
74523;SDS011;63074;44.696;10.358;2023-01-01T13:07:10;18.23;;;10.27;;
74523;SDS011;63074;44.696;10.358;2023-01-01T13:09:45;18.77;;;10.27;;
74523;SDS011;63074;44.696;10.358;2023-01-01T13:12:17;21.15;;;11.27;;
74523;SDS011;63074;44.696;10.358;2023-01-01T13:15:01;18.20;;;10.85;;
74523;SDS011;63074;44.696;10.358;2023-01-01T13:42:45;17.50;;;9.25;;
74523;SDS011;63074;44.696;10.358;2023-01-01T13:49:10;12.80;;;7.38;;
74523;SDS011;63074;44.696;10.358;2023-01-01T14:04:07;11.57;;;6.57;;
74523;SDS011;63074;44.696;10.358;2023-01-01T14:16:00;16.15;;;8.88;;
74523;SDS011;63074;44.696;10.358;2023-01-01T17:26:31;27.35;;;16.23;;
74523;SDS011;63074;44.696;10.358;2023-01-01T17:35:03;29.38;;;17.20;;
74523;SDS011;63074;44.696;10.358;2023-01-01T17:37:56;27.85;;;16.27;;
74523;SDS011;63074;44.696;10.358;2023-01-01T17:40:23;28.90;;;17.13;;
74523;SDS011;63074;44.696;10.358;2023-01-01T17:42:50;29.23;;;15.63;;
74523;SDS011;63074;44.696;10.358;2023-01-01T17:45:19;27.52;;;16.42;;
74523;SDS011;63074;44.696;10.358;2023-01-01T17:47:49;30.55;;;17.23;;
74523;SDS011;63074;44.696;10.358;2023-01-01T17:50:15;29.40;;;17.20;;
74523;SDS011;63074;44.696;10.358;2023-01-01T17:53:05;32.40;;;19.42;;
74523;SDS011;63074;44.696;10.358;2023-01-01T17:55:37;34.42;;;21.38;;
74523;SDS011;63074;44.696;10.358;2023-01-01T17:58:08;31.85;;;20.10;;
74523;SDS011;63074;44.696;10.358;2023-01-01T18:00:37;30.15;;;18.92;;
74523;SDS011;63074;44.696;10.358;2023-01-01T18:03:54;35.35;;;20.52;;
74523;SDS011;63074;44.696;10.358;2023-01-01T18:06:42;31.92;;;19.17;;
74523;SDS011;63074;44.696;10.358;2023-01-01T18:09:12;31.02;;;19.40;;
74523;SDS011;63074;44.696;10.358;2023-01-01T18:14:35;30.02;;;19.33;;
74523;SDS011;63074;44.696;10.358;2023-01-01T18:17:01;31.30;;;19.00;;
74523;SDS011;63074;44.696;10.358;2023-01-01T18:19:28;32.92;;;20.58;;
74523;SDS011;63074;44.696;10.358;2023-01-01T18:21:56;31.33;;;18.10;;
74523;SDS011;63074;44.696;10.358;2023-01-01T18:24:46;33.25;;;21.23;;
74523;SDS011;63074;44.696;10.358;2023-01-01T18:27:18;32.15;;;18.52;;
74523;SDS011;63074;44.696;10.358;2023-01-01T18:29:45;35.72;;;20.65;;
74523;SDS011;63074;44.696;10.358;2023-01-01T18:32:16;34.67;;;21.50;;
74523;SDS011;63074;44.696;10.358;2023-01-01T18:35:11;34.20;;;20.30;;
74523;SDS011;63074;44.696;10.358;2023-01-01T18:38:40;28.88;;;17.95;;
74523;SDS011;63074;44.696;10.358;2023-01-01T18:41:32;29.75;;;17.52;;
74523;SDS011;63074;44.696;10.358;2023-01-01T18:44:36;29.27;;;18.17;;
74523;SDS011;63074;44.696;10.358;2023-01-01T18:47:12;27.27;;;18.00;;
74523;SDS011;63074;44.696;10.358;2023-01-01T18:49:58;26.50;;;17.80;;
74523;SDS011;63074;44.696;10.358;2023-01-01T18:53:12;30.45;;;18.65;;
74523;SDS011;63074;44.696;10.358;2023-01-01T18:56:11;28.40;;;17.08;;
74523;SDS011;63074;44.696;10.358;2023-01-01T18:58:58;31.50;;;19.10;;
74523;SDS011;63074;44.696;10.358;2023-01-01T19:01:41;30.23;;;17.02;;
74523;SDS011;63074;44.696;10.358;2023-01-01T19:04:31;31.45;;;19.02;;
74523;SDS011;63074;44.696;10.358;2023-01-01T19:06:57;32.03;;;18.95;;
74523;SDS011;63074;44.696;10.358;2023-01-01T19:10:12;32.45;;;18.88;;
74523;SDS011;63074;44.696;10.358;2023-01-01T19:16:22;32.45;;;17.42;;
74523;SDS011;63074;44.696;10.358;2023-01-01T19:19:16;32.65;;;19.65;;
74523;SDS011;63074;44.696;10.358;2023-01-01T19:25:36;29.95;;;17.58;;
74523;SDS011;63074;44.696;10.358;2023-01-01T19:28:23;31.27;;;18.25;;
74523;SDS011;63074;44.696;10.358;2023-01-01T19:31:39;29.60;;;17.90;;
74523;SDS011;63074;44.696;10.358;2023-01-01T19:34:16;29.13;;;17.42;;
74523;SDS011;63074;44.696;10.358;2023-01-01T19:37:25;29.40;;;18.00;;
74523;SDS011;63074;44.696;10.358;2023-01-01T19:40:05;33.50;;;18.85;;
74523;SDS011;63074;44.696;10.358;2023-01-01T19:42:49;31.77;;;18.83;;
74523;SDS011;63074;44.696;10.358;2023-01-01T19:48:26;32.13;;;19.15;;
74523;SDS011;63074;44.696;10.358;2023-01-01T19:51:35;30.52;;;17.60;;
74523;SDS011;63074;44.696;10.358;2023-01-01T19:54:42;31.23;;;17.83;;
74523;SDS011;63074;44.696;10.358;2023-01-01T19:57:13;28.50;;;16.60;;
74523;SDS011;63074;44.696;10.358;2023-01-01T20:00:02;28.63;;;17.85;;
74523;SDS011;63074;44.696;10.358;2023-01-01T20:02:38;30.30;;;17.95;;
74523;SDS011;63074;44.696;10.358;2023-01-01T20:05:29;27.60;;;17.58;;
74523;SDS011;63074;44.696;10.358;2023-01-01T20:07:57;28.98;;;18.33;;
74523;SDS011;63074;44.696;10.358;2023-01-01T20:11:08;28.48;;;18.25;;
74523;SDS011;63074;44.696;10.358;2023-01-01T20:13:41;27.80;;;17.00;;
74523;SDS011;63074;44.696;10.358;2023-01-01T20:16:07;29.20;;;18.35;;
74523;SDS011;63074;44.696;10.358;2023-01-01T20:18:55;29.73;;;17.92;;
74523;SDS011;63074;44.696;10.358;2023-01-01T20:21:34;28.42;;;17.55;;
74523;SDS011;63074;44.696;10.358;2023-01-01T20:24:25;28.17;;;17.90;;
74523;SDS011;63074;44.696;10.358;2023-01-01T20:27:15;31.55;;;18.52;;
74523;SDS011;63074;44.696;10.358;2023-01-01T20:30:12;28.33;;;18.55;;
74523;SDS011;63074;44.696;10.358;2023-01-01T20:33:02;30.30;;;16.55;;
74523;SDS011;63074;44.696;10.358;2023-01-01T20:35:48;29.55;;;17.50;;
74523;SDS011;63074;44.696;10.358;2023-01-01T20:38:35;29.92;;;17.73;;
74523;SDS011;63074;44.696;10.358;2023-01-01T20:41:01;29.48;;;16.55;;
74523;SDS011;63074;44.696;10.358;2023-01-01T20:43:54;28.77;;;17.25;;
74523;SDS011;63074;44.696;10.358;2023-01-01T20:47:19;31.45;;;18.25;;
74523;SDS011;63074;44.696;10.358;2023-01-01T20:50:03;28.52;;;17.83;;
74523;SDS011;63074;44.696;10.358;2023-01-01T20:52:52;30.77;;;18.45;;
74523;SDS011;63074;44.696;10.358;2023-01-01T20:55:24;29.27;;;17.88;;
74523;SDS011;63074;44.696;10.358;2023-01-01T20:58:23;30.45;;;18.20;;
74523;SDS011;63074;44.696;10.358;2023-01-01T21:01:33;28.73;;;18.10;;
74523;SDS011;63074;44.696;10.358;2023-01-01T21:04:08;31.30;;;17.25;;
74523;SDS011;63074;44.696;10.358;2023-01-01T21:06:47;28.05;;;16.17;;
74523;SDS011;63074;44.696;10.358;2023-01-01T21:09:22;27.48;;;15.95;;